Time;durP1;ratioP1;P1;durP2;ratioP2;P2;SDS_P1;SDS_P2;PMS_P1;PMS_P2;Temp;Humidity;BMP_temperature;BMP_pressure;BME280_temperature;BME280_humidity;BME280_pressure;Samples;Min_cycle;Max_cycle;Signal;HPM_P1;HPM_P2
2022/12/06 00:00:07;;;;;;;21.77;16.40;;;2.90;99.90;3.20;99789.00;;;;342786;28;91675;-86
2022/12/06 00:00:19;;;;;;;23.05;16.40;;;2.90;99.90;3.20;99784.00;;;;341540;28;86633;-87
2022/12/06 00:00:31;;;;;;;23.88;16.30;;;2.90;99.90;3.20;99793.00;;;;341425;28;92029;-87
2022/12/06 00:00:43;;;;;;;22.75;15.88;;;2.90;99.90;3.40;99791.00;;;;340409;28;87133;-86
2022/12/06 00:00:55;;;;;;;23.52;15.85;;;2.90;99.90;3.50;99788.00;;;;341127;28;92902;-87
2022/12/06 00:01:12;;;;;;;23.23;15.85;;;2.90;99.90;3.50;99792.00;;;;338936;28;83530;-87
2022/12/06 00:01:33;;;;;;;21.13;16.00;;;3.00;99.90;3.40;99796.00;;;;341132;28;91927;-86
2022/12/06 00:01:45;;;;;;;20.12;15.68;;;3.00;99.90;3.30;99793.00;;;;341717;28;85313;-86
2022/12/06 00:01:57;;;;;;;20.48;15.52;;;3.00;99.90;3.20;99790.00;;;;344015;28;92179;-86
2022/12/06 00:02:09;;;;;;;20.08;15.68;;;2.90;99.90;3.20;99792.00;;;;338752;28;87474;-87
2022/12/06 00:02:21;;;;;;;22.45;15.93;;;2.90;99.90;3.20;99790.00;;;;341034;28;91460;-87
2022/12/06 00:02:33;;;;;;;21.92;16.17;;;2.90;99.90;3.20;99788.00;;;;339977;28;87405;-86
2022/12/06 00:02:45;;;;;;;21.27;15.90;;;2.90;99.90;3.10;99796.00;;;;339938;28;92403;-87
2022/12/06 00:02:57;;;;;;;20.17;16.35;;;2.90;99.90;3.00;99796.00;;;;341443;28;86022;-87
2022/12/06 00:03:09;;;;;;;20.98;16.52;;;2.90;99.90;3.10;99792.00;;;;341061;28;92930;-87
2022/12/06 00:03:21;;;;;;;20.50;16.33;;;2.90;99.90;3.20;99789.00;;;;341322;28;87926;-86
2022/12/06 00:03:33;;;;;;;21.83;16.05;;;2.90;99.90;3.40;99785.00;;;;342596;28;89205;-87
2022/12/06 00:03:46;;;;;;;21.75;15.52;;;2.90;99.90;3.50;99785.00;;;;342776;28;85925;-87
2022/12/06 00:04:02;;;;;;;23.40;16.06;;;2.90;99.90;3.30;99790.00;;;;341232;28;92035;-87
2022/12/06 00:04:15;;;;;;;25.45;17.73;;;3.00;99.90;3.20;99788.00;;;;340049;28;86374;-87
2022/12/06 00:04:27;;;;;;;23.25;17.08;;;2.90;99.90;3.10;99792.00;;;;339838;28;91611;-86
2022/12/06 00:04:39;;;;;;;22.02;16.23;;;3.00;99.90;3.10;99797.00;;;;340173;28;86598;-87
2022/12/06 00:04:51;;;;;;;22.80;16.33;;;3.00;99.90;3.20;99795.00;;;;339510;28;90838;-87
2022/12/06 00:05:03;;;;;;;23.30;16.17;;;3.00;99.90;3.10;99797.00;;;;341391;28;86234;-87
2022/12/06 00:05:15;;;;;;;23.48;16.17;;;3.00;99.90;3.30;99791.00;;;;342446;28;93203;-86
2022/12/06 00:05:27;;;;;;;21.83;16.17;;;2.90;99.90;3.20;99796.00;;;;341353;28;87216;-87
2022/12/06 00:05:39;;;;;;;19.85;15.07;;;2.90;99.90;3.20;99789.00;;;;339974;28;87845;-87
2022/12/06 00:06:06;;;;;;;19.83;15.35;;;3.00;99.90;3.00;99793.00;;;;340232;28;84246;-87
2022/12/06 00:06:19;;;;;;;21.35;16.33;;;2.90;99.90;3.00;99792.00;;;;342477;28;88964;-87
2022/12/06 00:06:32;;;;;;;21.25;16.13;;;2.90;99.90;3.10;99795.00;;;;341475;28;86469;-87
2022/12/06 00:06:46;;;;;;;21.30;16.65;;;2.90;99.90;3.10;99789.00;;;;341326;28;91976;-87
2022/12/06 00:06:58;;;;;;;21.17;15.98;;;2.90;99.90;3.10;99790.00;;;;340141;28;85854;-87
2022/12/06 00:07:11;;;;;;;22.40;16.10;;;2.90;99.90;3.10;99797.00;;;;342392;28;89074;-87
2022/12/06 00:07:23;;;;;;;20.60;16.27;;;2.90;99.90;3.10;99789.00;;;;344155;28;83300;-87
2022/12/06 00:07:35;;;;;;;20.42;16.33;;;2.90;99.90;3.10;99783.00;;;;342487;28;90303;-87
2022/12/06 00:07:48;;;;;;;22.55;16.50;;;2.90;99.90;3.20;99789.00;;;;341429;28;87198;-87
2022/12/06 00:08:01;;;;;;;22.65;16.27;;;2.90;99.90;3.20;99781.00;;;;341196;28;92000;-87
2022/12/06 00:08:13;;;;;;;21.45;16.45;;;2.90;99.90;3.30;99788.00;;;;340208;28;83855;-87
2022/12/06 00:08:25;;;;;;;21.27;15.88;;;2.90;99.90;3.10;99788.00;;;;341137;28;90189;-87
2022/12/06 00:08:37;;;;;;;23.80;15.80;;;2.90;99.90;3.10;99786.00;;;;342816;28;86345;-86
2022/12/06 00:08:50;;;;;;;24.10;16.08;;;2.90;99.90;3.20;99786.00;;;;341299;28;91296;-86
2022/12/06 00:09:02;;;;;;;19.83;16.15;;;2.90;99.90;3.20;99777.00;;;;340076;28;87042;-87
2022/12/06 00:09:19;;;;;;;20.20;16.33;;;2.90;99.90;3.20;99781.00;;;;341196;28;92181;-87
2022/12/06 00:09:31;;;;;;;21.33;16.27;;;2.90;99.90;3.30;99780.00;;;;344075;28;88174;-86
2022/12/06 00:09:43;;;;;;;22.20;16.65;;;2.90;99.90;3.30;99794.00;;;;341255;28;90449;-87
2022/12/06 00:09:55;;;;;;;23.80;16.80;;;2.90;99.90;3.30;99789.00;;;;342888;28;86106;-86
2022/12/06 00:10:08;;;;;;;23.13;16.63;;;2.90;99.90;3.30;99780.00;;;;339935;28;90182;-87
2022/12/06 00:10:20;;;;;;;23.08;15.60;;;2.90;99.90;3.20;99775.00;;;;341156;28;86658;-86
2022/12/06 00:10:35;;;;;;;24.08;15.00;;;2.90;99.90;3.30;99787.00;;;;341166;28;90952;-87
2022/12/06 00:10:46;;;;;;;22.88;15.23;;;2.90;99.90;3.20;99787.00;;;;344285;28;87316;-86
2022/12/06 00:11:07;;;;;;;20.15;15.25;;;2.90;99.90;3.00;99790.00;;;;341191;28;91530;-87
2022/12/06 00:11:25;;;;;;;20.45;15.23;;;2.90;99.90;3.10;99781.00;;;;341413;28;85442;-87
2022/12/06 00:11:37;;;;;;;22.92;16.85;;;2.90;99.90;3.10;99781.00;;;;339809;28;92679;-87
2022/12/06 00:11:49;;;;;;;24.25;17.23;;;2.90;99.90;3.00;99783.00;;;;342732;28;86283;-87
2022/12/06 00:12:01;;;;;;;26.88;16.63;;;2.90;99.90;3.00;99788.00;;;;339830;28;93593;-87
2022/12/06 00:12:13;;;;;;;25.25;16.08;;;2.90;99.90;3.00;99788.00;;;;344213;28;84814;-88
2022/12/06 00:12:25;;;;;;;22.14;15.96;;;2.90;99.90;3.10;99782.00;;;;341252;28;89598;-87
2022/12/06 00:12:37;;;;;;;20.48;16.08;;;2.80;99.90;3.10;99786.00;;;;342818;28;87132;-87
2022/12/06 00:12:49;;;;;;;20.27;15.90;;;2.80;99.90;3.00;99788.00;;;;338586;28;91567;-87
2022/12/06 00:13:03;;;;;;;23.40;16.95;;;2.80;99.90;3.00;99788.00;;;;341327;28;87295;-87
2022/12/06 00:13:15;;;;;;;24.50;16.80;;;2.80;99.90;3.00;99784.00;;;;339827;28;91667;-86
2022/12/06 00:13:27;;;;;;;24.10;15.73;;;2.80;99.90;3.10;99777.00;;;;342833;28;87949;-87
2022/12/06 00:13:39;;;;;;;21.33;15.85;;;2.70;99.90;3.10;99772.00;;;;343791;28;92642;-87
2022/12/06 00:13:53;;;;;;;23.95;16.95;;;2.80;99.90;3.00;99782.00;;;;342740;28;87442;-87
2022/12/06 00:14:05;;;;;;;26.85;18.05;;;2.80;99.90;3.00;99785.00;;;;340902;28;91002;-86
2022/12/06 00:14:18;;;;;;;24.15;17.70;;;2.80;99.90;3.00;99787.00;;;;341384;28;84841;-87
2022/12/06 00:14:30;;;;;;;21.67;16.92;;;2.70;99.90;3.10;99782.00;;;;341218;28;92335;-86
2022/12/06 00:14:41;;;;;;;23.67;17.23;;;2.70;99.90;3.20;99783.00;;;;338953;28;83385;-87
2022/12/06 00:14:53;;;;;;;24.27;16.67;;;2.70;99.90;3.10;99783.00;;;;341141;28;92537;-87
2022/12/06 00:15:06;;;;;;;23.85;16.77;;;2.70;99.90;3.10;99786.00;;;;341464;28;87110;-87
2022/12/06 00:15:18;;;;;;;22.58;17.08;;;2.70;99.90;3.10;99788.00;;;;342658;28;88221;-87
2022/12/06 00:15:33;;;;;;;23.10;17.80;;;2.70;99.90;3.20;99780.00;;;;344235;28;86989;-87
2022/12/06 00:15:45;;;;;;;23.12;17.30;;;2.70;99.90;3.20;99783.00;;;;342499;28;93012;-87
2022/12/06 00:16:03;;;;;;;22.30;16.83;;;2.70;99.90;3.20;99783.00;;;;344230;28;86053;-87
2022/12/06 00:16:15;;;;;;;22.17;17.13;;;2.70;99.90;3.30;99780.00;;;;339693;28;88977;-87
2022/12/06 00:16:28;;;;;;;22.70;16.58;;;2.70;99.90;3.20;99789.00;;;;341565;28;84582;-86
2022/12/06 00:16:40;;;;;;;24.73;17.17;;;2.70;99.90;3.10;99777.00;;;;339801;28;91501;-87
2022/12/06 00:16:52;;;;;;;23.98;17.10;;;2.70;99.90;3.10;99789.00;;;;340192;28;85093;-87
2022/12/06 00:17:04;;;;;;;21.75;16.10;;;2.70;99.90;3.30;99788.00;;;;341117;28;90900;-87
2022/12/06 00:17:16;;;;;;;20.67;15.60;;;2.70;99.90;3.20;99780.00;;;;339875;28;84704;-87
2022/12/06 00:17:28;;;;;;;21.13;15.23;;;2.70;99.90;3.30;99788.00;;;;342536;28;92419;-87
2022/12/06 00:17:39;;;;;;;23.92;16.13;;;2.80;99.90;3.20;99792.00;;;;340129;28;86780;-87
2022/12/06 00:17:54;;;;;;;23.45;17.20;;;2.70;99.90;3.20;99788.00;;;;342471;28;90940;-87
2022/12/06 00:18:06;;;;;;;22.33;17.27;;;2.70;99.90;3.20;99779.00;;;;341488;28;87302;-87
2022/12/06 00:18:18;;;;;;;21.15;16.17;;;2.70;99.90;3.40;99788.00;;;;343828;28;90625;-87
2022/12/06 00:18:31;;;;;;;21.65;15.73;;;2.80;99.90;3.40;99797.00;;;;342768;28;85743;-87
2022/12/06 00:18:44;;;;;;;21.63;15.02;;;2.80;99.90;3.40;99784.00;;;;338539;28;91978;-87
2022/12/06 00:18:56;;;;;;;22.08;15.48;;;2.80;99.90;3.40;99785.00;;;;342772;28;86198;-87
2022/12/06 00:19:11;;;;;;;22.33;16.58;;;2.80;99.90;3.50;99785.00;;;;342469;28;90598;-87
2022/12/06 00:19:23;;;;;;;21.88;16.50;;;2.80;99.90;3.20;99787.00;;;;341442;28;87380;-87
2022/12/06 00:19:35;;;;;;;22.17;16.33;;;2.80;99.90;3.30;99788.00;;;;343846;28;91694;-87
2022/12/06 00:19:47;;;;;;;22.63;16.00;;;2.80;99.90;3.20;99785.00;;;;342568;28;84100;-87
2022/12/06 00:19:59;;;;;;;20.85;15.50;;;2.80;99.90;3.30;99788.00;;;;342614;28;90915;-87
2022/12/06 00:20:11;;;;;;;18.85;14.88;;;2.80;99.90;3.40;99788.00;;;;341385;28;86850;-87
2022/12/06 00:20:23;;;;;;;18.77;14.73;;;2.80;99.90;3.30;99794.00;;;;339701;28;91564;-87
2022/12/06 00:20:35;;;;;;;20.25;15.25;;;2.80;99.90;3.10;99788.00;;;;341397;28;87533;-87
2022/12/06 00:20:47;;;;;;;21.65;15.55;;;2.80;99.90;3.30;99791.00;;;;341195;28;89047;-86
2022/12/06 00:21:13;;;;;;;22.33;16.02;;;2.80;99.90;3.10;99793.00;;;;342778;28;85141;-86
2022/12/06 00:21:27;;;;;;;21.02;15.00;;;2.80;99.90;3.00;99789.00;;;;342510;28;92730;-86
2022/12/06 00:21:39;;;;;;;21.95;15.13;;;2.80;99.90;3.00;99796.00;;;;340147;28;84946;-86
2022/12/06 00:21:51;;;;;;;21.23;15.63;;;2.80;99.90;2.90;99785.00;;;;341066;28;92726;-86
2022/12/06 00:22:03;;;;;;;20.45;15.48;;;2.80;99.90;2.80;99791.00;;;;344199;28;87424;-86
2022/12/06 00:22:15;;;;;;;19.63;14.48;;;2.80;99.90;3.00;99787.00;;;;341101;28;91538;-86
2022/12/06 00:22:27;;;;;;;21.23;15.35;;;2.80;99.90;2.80;99788.00;;;;338657;28;87829;-86
2022/12/06 00:22:44;;;;;;;21.48;16.27;;;2.80;99.90;2.80;99788.00;;;;341651;28;92173;-86
2022/12/06 00:22:56;;;;;;;21.25;15.93;;;2.80;99.90;2.80;99792.00;;;;343183;28;85360;-86
2022/12/06 00:23:08;;;;;;;21.77;15.90;;;2.80;99.90;2.70;99797.00;;;;341613;28;88437;-86
2022/12/06 00:23:20;;;;;;;20.98;15.70;;;2.80;99.90;2.70;99789.00;;;;340486;28;87243;-87
2022/12/06 00:23:37;;;;;;;20.98;16.17;;;2.80;99.90;2.70;99792.00;;;;342906;28;91707;-86
2022/12/06 00:23:59;;;;;;;24.50;17.20;;;2.70;99.90;2.70;99788.00;;;;341913;28;86561;-86
2022/12/06 00:24:16;;;;;;;23.60;16.08;;;2.70;99.90;2.70;99797.00;;;;343928;28;91930;-86
2022/12/06 00:24:28;;;;;;;21.98;15.10;;;2.70;99.90;2.60;99793.00;;;;340080;28;84269;-86
2022/12/06 00:24:40;;;;;;;21.92;15.55;;;2.70;99.90;2.60;99795.00;;;;339782;28;92551;-86
2022/12/06 00:24:52;;;;;;;22.13;15.98;;;2.70;99.90;2.60;99790.00;;;;342726;28;86513;-86
2022/12/06 00:25:04;;;;;;;20.35;15.38;;;2.70;99.90;2.70;99785.00;;;;341198;28;92611;-85
2022/12/06 00:25:16;;;;;;;20.83;15.48;;;2.70;99.90;2.80;99792.00;;;;341758;28;87830;-87
2022/12/06 00:25:28;;;;;;;22.45;15.90;;;2.70;99.90;2.80;99786.00;;;;339821;28;91393;-87
2022/12/06 00:25:40;;;;;;;22.15;15.90;;;2.60;99.90;3.00;99793.00;;;;341420;28;86938;-87
2022/12/06 00:25:52;;;;;;;20.92;15.27;;;2.70;99.90;3.10;99789.00;;;;339415;28;91190;-86
2022/12/06 00:26:05;;;;;;;21.38;15.38;;;2.70;99.90;3.00;99797.00;;;;342865;28;86050;-86
2022/12/06 00:26:17;;;;;;;20.92;15.05;;;2.70;99.90;3.20;99791.00;;;;339671;28;92432;-86
2022/12/06 00:26:29;;;;;;;19.83;15.30;;;2.70;99.90;3.30;99789.00;;;;340098;28;86186;-87
2022/12/06 00:26:43;;;;;;;20.02;15.27;;;2.70;99.90;3.40;99789.00;;;;342628;28;91542;-86
2022/12/06 00:26:55;;;;;;;20.05;15.10;;;2.70;99.90;3.30;99797.00;;;;340134;28;87620;-86
2022/12/06 00:27:07;;;;;;;21.73;15.32;;;2.70;99.90;3.00;99787.00;;;;341140;28;90297;-86
2022/12/06 00:27:19;;;;;;;22.30;15.18;;;2.70;99.90;3.20;99785.00;;;;341558;28;84635;-87
2022/12/06 00:27:31;;;;;;;23.35;15.80;;;2.70;99.90;3.30;99790.00;;;;339876;28;90965;-87
2022/12/06 00:27:43;;;;;;;23.45;16.60;;;2.70;99.90;3.20;99788.00;;;;340122;28;87902;-86
2022/12/06 00:27:55;;;;;;;22.08;16.00;;;2.80;99.90;3.10;99788.00;;;;339974;28;89332;-86
2022/12/06 00:28:07;;;;;;;22.40;15.68;;;2.80;99.90;3.00;99795.00;;;;340197;28;85943;-87
2022/12/06 00:28:19;;;;;;;22.00;15.40;;;2.80;99.90;2.90;99787.00;;;;339750;28;92297;-86
2022/12/06 00:28:32;;;;;;;21.55;15.15;;;2.80;99.90;2.90;99788.00;;;;341617;28;85979;-87
2022/12/06 00:28:44;;;;;;;20.45;15.68;;;2.80;99.90;3.00;99785.00;;;;339991;28;90553;-87
2022/12/06 00:28:58;;;;;;;20.58;16.08;;;2.70;99.90;3.00;99788.00;;;;341109;28;86554;-87
2022/12/06 00:29:15;;;;;;;20.85;15.65;;;2.70;99.90;3.00;99796.00;;;;342410;28;91992;-87
2022/12/06 00:29:27;;;;;;;22.67;16.20;;;2.70;99.90;2.90;99781.00;;;;341562;28;84959;-86
2022/12/06 00:29:39;;;;;;;23.38;16.52;;;2.70;99.90;2.90;99789.00;;;;342594;28;87880;-87
2022/12/06 00:29:51;;;;;;;23.15;16.38;;;2.70;99.90;2.80;99788.00;;;;342580;28;86369;-86
2022/12/06 00:30:04;;;;;;;24.38;16.33;;;2.70;99.90;2.80;99788.00;;;;339791;28;92360;-86
2022/12/06 00:30:16;;;;;;;24.78;16.60;;;2.70;99.90;2.80;99791.00;;;;338450;28;87844;-86
2022/12/06 00:30:28;;;;;;;24.40;16.88;;;2.70;99.90;2.80;99796.00;;;;338530;28;90498;-86
2022/12/06 00:30:40;;;;;;;22.10;17.17;;;2.70;99.90;2.80;99791.00;;;;340194;28;87195;-86
2022/12/06 00:30:56;;;;;;;21.33;16.80;;;2.70;99.90;2.80;99792.00;;;;339824;28;92477;-86
2022/12/06 00:31:17;;;;;;;20.85;16.13;;;2.60;99.90;2.80;99790.00;;;;340097;28;86708;-86
2022/12/06 00:31:30;;;;;;;24.38;17.33;;;2.60;99.90;2.80;99790.00;;;;339911;28;89808;-86
2022/12/06 00:31:41;;;;;;;23.38;16.90;;;2.60;99.90;2.80;99793.00;;;;337395;28;87747;-86
2022/12/06 00:31:53;;;;;;;22.00;16.17;;;2.60;99.90;2.70;99791.00;;;;338544;28;88409;-87
2022/12/06 00:32:05;;;;;;;20.70;14.73;;;2.60;99.90;2.70;99792.00;;;;339895;28;85646;-86
2022/12/06 00:32:17;;;;;;;20.20;14.48;;;2.60;99.90;2.60;99800.00;;;;339691;28;91021;-86
2022/12/06 00:32:30;;;;;;;20.42;15.23;;;2.60;99.90;2.70;99791.00;;;;340081;28;86207;-86
2022/12/06 00:32:42;;;;;;;21.90;16.80;;;2.60;99.90;2.60;99787.00;;;;341295;28;92499;-87
2022/12/06 00:32:54;;;;;;;22.73;16.27;;;2.60;99.90;2.80;99791.00;;;;341441;28;85219;-87
2022/12/06 00:33:06;;;;;;;21.92;15.73;;;2.60;99.90;2.90;99790.00;;;;338496;28;91584;-86
2022/12/06 00:33:18;;;;;;;20.13;15.32;;;2.60;99.90;3.00;99796.00;;;;338775;28;85713;-87
2022/12/06 00:33:30;;;;;;;20.92;16.40;;;2.60;99.90;2.80;99794.00;;;;341131;28;93220;-87
2022/12/06 00:33:42;;;;;;;22.33;16.25;;;2.60;99.90;2.70;99799.00;;;;340059;28;87669;-87
2022/12/06 00:33:54;;;;;;;22.17;15.15;;;2.60;99.90;2.90;99790.00;;;;339740;28;92776;-86
2022/12/06 00:34:06;;;;;;;21.50;14.90;;;2.60;99.90;3.00;99788.00;;;;339099;28;84475;-86
2022/12/06 00:34:18;;;;;;;20.92;14.73;;;2.60;99.90;3.10;99789.00;;;;339959;28;91589;-87
2022/12/06 00:34:30;;;;;;;20.45;15.25;;;2.60;99.90;3.20;99782.00;;;;340237;28;86071;-87
2022/12/06 00:34:42;;;;;;;21.17;15.85;;;2.60;99.90;3.20;99788.00;;;;339939;28;90562;-86
2022/12/06 00:34:54;;;;;;;23.70;16.20;;;2.60;99.90;3.10;99777.00;;;;337419;28;87180;-86
2022/12/06 00:35:06;;;;;;;24.73;16.73;;;2.60;99.90;3.00;99792.00;;;;339619;28;91851;-87
2022/12/06 00:35:18;;;;;;;22.15;16.45;;;2.60;99.90;3.00;99791.00;;;;340122;28;85878;-86
2022/12/06 00:35:30;;;;;;;22.60;16.40;;;2.60;99.90;2.80;99793.00;;;;341024;28;92906;-87
2022/12/06 00:35:42;;;;;;;21.88;16.00;;;2.60;99.90;2.80;99789.00;;;;341517;28;85950;-86
2022/12/06 00:35:59;;;;;;;20.73;15.45;;;2.60;99.90;2.90;99790.00;;;;342678;28;88527;-86
2022/12/06 00:36:23;;;;;;;20.20;15.50;;;2.60;99.90;2.80;99788.00;;;;342579;28;87497;-86
2022/12/06 00:36:37;;;;;;;21.52;15.60;;;2.60;99.90;2.90;99791.00;;;;339776;28;92174;-86
2022/12/06 00:36:49;;;;;;;20.83;15.38;;;2.60;99.90;3.00;99791.00;;;;338945;28;83464;-87
2022/12/06 00:37:00;;;;;;;20.65;15.57;;;2.60;99.90;3.00;99793.00;;;;339875;28;89812;-86
2022/12/06 00:37:12;;;;;;;20.95;15.13;;;2.60;99.90;3.00;99788.00;;;;340031;28;84814;-86
2022/12/06 00:37:24;;;;;;;20.80;14.60;;;2.60;99.90;2.90;99793.00;;;;341408;28;92431;-86
2022/12/06 00:37:36;;;;;;;20.45;14.60;;;2.60;99.90;3.00;99788.00;;;;338774;28;84446;-87
2022/12/06 00:37:48;;;;;;;20.35;15.35;;;2.60;99.90;3.10;99784.00;;;;341130;28;90260;-86
2022/12/06 00:38:00;;;;;;;19.73;15.75;;;2.60;99.90;3.00;99788.00;;;;338644;28;86103;-87
2022/12/06 00:38:12;;;;;;;19.73;15.75;;;2.60;99.90;2.90;99788.00;;;;337207;28;92367;-87
2022/12/06 00:38:24;;;;;;;20.13;15.63;;;2.60;99.90;2.90;99796.00;;;;338542;28;87253;-87
2022/12/06 00:38:36;;;;;;;22.48;15.95;;;2.60;99.90;3.00;99786.00;;;;341154;28;92141;-87
2022/12/06 00:38:49;;;;;;;22.65;16.10;;;2.60;99.90;2.90;99793.00;;;;340107;28;87550;-87
2022/12/06 00:39:04;;;;;;;22.77;16.08;;;2.60;99.90;2.90;99790.00;;;;339699;28;91136;-87
2022/12/06 00:39:16;;;;;;;22.15;16.02;;;2.60;99.90;2.90;99786.00;;;;342783;28;85754;-87
2022/12/06 00:39:28;;;;;;;23.65;15.80;;;2.60;99.90;2.90;99782.00;;;;339961;28;89581;-86
2022/12/06 00:39:40;;;;;;;23.38;15.32;;;2.60;99.90;2.90;99796.00;;;;338705;28;85836;-87
2022/12/06 00:39:52;;;;;;;22.77;14.90;;;2.60;99.90;2.80;99782.00;;;;338385;28;89400;-87
2022/12/06 00:40:04;;;;;;;21.67;15.27;;;2.60;99.90;2.80;99774.00;;;;340048;28;86180;-86
2022/12/06 00:40:16;;;;;;;21.92;15.55;;;2.60;99.90;2.80;99788.00;;;;341457;28;88010;-87
2022/12/06 00:40:28;;;;;;;22.30;15.65;;;2.60;99.90;2.90;99787.00;;;;338808;28;84253;-86
2022/12/06 00:40:40;;;;;;;22.63;16.10;;;2.60;99.90;2.80;99794.00;;;;341639;28;90669;-87
2022/12/06 00:41:03;;;;;;;23.70;17.13;;;2.60;99.90;2.70;99787.00;;;;341707;28;83387;-87
2022/12/06 00:41:20;;;;;;;21.80;15.50;;;2.60;99.90;2.70;99788.00;;;;338527;28;92968;-87
2022/12/06 00:41:32;;;;;;;23.98;15.93;;;2.60;99.90;2.80;99781.00;;;;341225;28;86309;-86
2022/12/06 00:41:45;;;;;;;25.58;16.52;;;2.60;99.90;2.80;99781.00;;;;341046;28;90534;-86
2022/12/06 00:41:57;;;;;;;24.95;17.23;;;2.60;99.90;2.80;99779.00;;;;341466;28;87093;-86
2022/12/06 00:42:08;;;;;;;22.73;16.45;;;2.60;99.90;2.70;99784.00;;;;340853;28;93110;-86
2022/12/06 00:42:20;;;;;;;23.45;16.60;;;2.50;99.90;2.60;99787.00;;;;343950;28;85004;-87
2022/12/06 00:42:32;;;;;;;23.15;16.10;;;2.50;99.90;2.70;99785.00;;;;340051;28;92161;-86
2022/12/06 00:42:44;;;;;;;23.73;17.05;;;2.60;99.90;2.70;99782.00;;;;338963;28;86026;-86
2022/12/06 00:42:56;;;;;;;27.98;17.55;;;2.50;99.90;2.60;99776.00;;;;338579;28;90845;-87
2022/12/06 00:43:08;;;;;;;28.35;18.15;;;2.50;99.90;2.60;99779.00;;;;340009;28;87768;-87
2022/12/06 00:43:20;;;;;;;26.02;18.10;;;2.50;99.90;2.70;99780.00;;;;341336;28;88939;-87
2022/12/06 00:43:32;;;;;;;24.65;17.63;;;2.50;99.90;2.70;99773.00;;;;340122;28;86823;-86
2022/12/06 00:43:45;;;;;;;25.00;17.20;;;2.50;99.90;2.90;99776.00;;;;338523;28;91267;-87
2022/12/06 00:43:57;;;;;;;23.45;16.13;;;2.50;99.90;2.90;99783.00;;;;341472;28;86120;-86
2022/12/06 00:44:09;;;;;;;22.27;15.73;;;2.50;99.90;2.90;99772.00;;;;339871;28;90749;-86
2022/12/06 00:44:21;;;;;;;21.75;15.57;;;2.50;99.90;2.70;99783.00;;;;342727;28;86231;-86
2022/12/06 00:44:33;;;;;;;21.70;15.77;;;2.50;99.90;3.00;99778.00;;;;341143;28;91856;-87
2022/12/06 00:44:45;;;;;;;22.98;16.05;;;2.50;99.90;3.00;99782.00;;;;338792;28;85234;-87
2022/12/06 00:44:57;;;;;;;25.00;17.20;;;2.50;99.90;2.80;99770.00;;;;341123;28;91827;-87
2022/12/06 00:45:09;;;;;;;27.88;17.75;;;2.50;99.90;2.80;99777.00;;;;341465;28;86325;-87
2022/12/06 00:45:21;;;;;;;26.88;17.45;;;2.50;99.90;2.80;99780.00;;;;340240;28;89446;-86
2022/12/06 00:45:33;;;;;;;24.77;17.30;;;2.50;99.90;2.90;99773.00;;;;340279;28;86127;-86
2022/12/06 00:45:45;;;;;;;22.85;17.25;;;2.50;99.90;2.80;99778.00;;;;338645;28;88506;-86
2022/12/06 00:45:57;;;;;;;22.55;16.83;;;2.50;99.90;2.70;99782.00;;;;338848;28;87090;-86
2022/12/06 00:46:16;;;;;;;24.02;16.77;;;2.50;99.90;2.70;99776.00;;;;336892;28;89362;-87
2022/12/06 00:46:29;;;;;;;25.65;17.35;;;2.50;99.90;2.70;99780.00;;;;340171;28;84495;-87
2022/12/06 00:46:41;;;;;;;25.77;16.75;;;2.50;99.90;2.70;99772.00;;;;339735;28;91560;-87
2022/12/06 00:46:53;;;;;;;26.67;16.85;;;2.50;99.90;2.80;99779.00;;;;341352;28;86999;-87
2022/12/06 00:47:05;;;;;;;26.90;16.65;;;2.50;99.90;2.80;99765.00;;;;339769;28;91450;-87
2022/12/06 00:47:17;;;;;;;25.08;16.50;;;2.50;99.90;2.80;99779.00;;;;341464;28;87446;-86
2022/12/06 00:47:29;;;;;;;23.23;16.30;;;2.50;99.90;2.80;99773.00;;;;342718;28;89092;-87
2022/12/06 00:47:41;;;;;;;22.42;16.73;;;2.50;99.90;2.70;99778.00;;;;340050;28;87680;-87
2022/12/06 00:47:53;;;;;;;22.00;17.45;;;2.50;99.90;2.70;99775.00;;;;341127;28;91290;-87
2022/12/06 00:48:05;;;;;;;22.35;17.55;;;2.50;99.90;2.70;99767.00;;;;337588;28;83446;-87
2022/12/06 00:48:16;;;;;;;23.40;16.58;;;2.50;99.90;3.00;99781.00;;;;340755;28;92897;-86
2022/12/06 00:48:28;;;;;;;24.00;16.35;;;2.50;99.90;2.80;99768.00;;;;340122;28;84774;-87
2022/12/06 00:48:40;;;;;;;23.80;16.30;;;2.50;99.90;3.10;99768.00;;;;342517;28;91860;-87
2022/12/06 00:48:53;;;;;;;23.80;16.65;;;2.50;99.90;3.20;99765.00;;;;339974;28;87689;-87
2022/12/06 00:49:05;;;;;;;24.88;16.35;;;2.60;99.90;3.10;99775.00;;;;341198;28;88237;-86
2022/12/06 00:49:17;;;;;;;24.88;16.60;;;2.60;99.90;2.90;99772.00;;;;341343;28;87245;-87
2022/12/06 00:49:29;;;;;;;22.88;16.38;;;2.60;99.90;2.80;99777.00;;;;341220;28;90702;-87
2022/12/06 00:49:41;;;;;;;22.73;15.80;;;2.60;99.90;3.00;99771.00;;;;338487;28;87177;-86
2022/12/06 00:49:53;;;;;;;23.30;16.13;;;2.60;99.90;2.80;99774.00;;;;341152;28;89489;-87
2022/12/06 00:50:06;;;;;;;22.86;16.32;;;2.60;99.90;2.80;99771.00;;;;340241;28;86299;-87
2022/12/06 00:50:18;;;;;;;21.17;16.42;;;2.60;99.90;2.70;99775.00;;;;339830;28;92908;-86
2022/12/06 00:50:30;;;;;;;22.30;15.93;;;2.60;99.90;2.60;99775.00;;;;338622;28;87401;-87
2022/12/06 00:50:42;;;;;;;23.30;15.60;;;2.60;99.90;2.70;99777.00;;;;339838;28;92991;-85
2022/12/06 00:50:54;;;;;;;24.23;16.75;;;2.50;99.90;2.80;99772.00;;;;337497;28;85172;-87
2022/12/06 00:51:06;;;;;;;23.00;16.92;;;2.60;99.90;2.80;99779.00;;;;342419;28;91790;-86
2022/12/06 00:51:18;;;;;;;22.17;16.75;;;2.60;99.90;2.70;99771.00;;;;341612;28;83660;-86
2022/12/06 00:51:31;;;;;;;22.58;16.13;;;2.50;99.90;2.60;99773.00;;;;340201;28;91647;-86
2022/12/06 00:51:43;;;;;;;22.60;16.05;;;2.50;99.90;2.60;99770.00;;;;339109;28;87195;-87
2022/12/06 00:51:55;;;;;;;21.33;15.77;;;2.50;99.90;2.60;99770.00;;;;340317;28;91932;-87
2022/12/06 00:52:07;;;;;;;20.98;15.40;;;2.50;99.90;2.70;99774.00;;;;343301;28;85863;-87
2022/12/06 00:52:20;;;;;;;23.42;16.75;;;2.50;99.90;2.60;99773.00;;;;340183;28;90816;-86
2022/12/06 00:52:32;;;;;;;23.33;17.45;;;2.50;99.90;2.60;99769.00;;;;341826;28;86613;-87
2022/12/06 00:52:45;;;;;;;21.23;16.80;;;2.50;99.90;2.60;99771.00;;;;341692;28;91936;-87
2022/12/06 00:52:57;;;;;;;22.55;17.27;;;2.50;99.90;2.60;99784.00;;;;341818;28;85117;-87
2022/12/06 00:53:09;;;;;;;23.73;17.63;;;2.50;99.90;2.60;99783.00;;;;337844;28;92380;-87
2022/12/06 00:53:21;;;;;;;22.02;16.25;;;2.50;99.90;2.60;99779.00;;;;340584;28;85633;-87
2022/12/06 00:53:33;;;;;;;23.70;15.82;;;2.50;99.90;2.50;99776.00;;;;337696;28;90943;-86
2022/12/06 00:53:46;;;;;;;24.27;16.15;;;2.50;99.90;2.50;99775.00;;;;340504;28;88113;-86
2022/12/06 00:53:59;;;;;;;24.27;16.90;;;2.50;99.90;2.50;99769.00;;;;341533;28;91262;-86
2022/12/06 00:54:13;;;;;;;24.00;16.65;;;2.50;99.90;2.60;99767.00;;;;340266;28;84767;-86
2022/12/06 00:54:25;;;;;;;23.60;16.15;;;2.50;99.90;2.60;99779.00;;;;339768;28;90612;-87
2022/12/06 00:54:37;;;;;;;24.23;16.48;;;2.40;99.90;2.60;99775.00;;;;340085;28;85929;-87
2022/12/06 00:54:48;;;;;;;24.25;17.13;;;2.40;99.90;2.60;99766.00;;;;342493;28;91958;-87
2022/12/06 00:55:00;;;;;;;24.38;16.73;;;2.40;99.90;2.50;99766.00;;;;339928;28;86844;-86
2022/12/06 00:55:12;;;;;;;24.35;16.25;;;2.40;99.90;2.60;99771.00;;;;338465;28;91659;-86
2022/12/06 00:55:24;;;;;;;26.63;16.67;;;2.40;99.90;2.60;99776.00;;;;341482;28;84807;-87
2022/12/06 00:55:36;;;;;;;23.95;16.65;;;2.40;99.90;2.60;99770.00;;;;338443;28;91853;-87
2022/12/06 00:55:48;;;;;;;22.20;16.42;;;2.40;99.90;2.60;99772.00;;;;338721;28;86765;-86
2022/12/06 00:56:00;;;;;;;20.65;17.00;;;2.40;99.90;2.70;99770.00;;;;338611;28;89010;-86
2022/12/06 00:56:12;;;;;;;23.00;17.10;;;2.40;99.90;2.80;99764.00;;;;340105;28;87013;-86
2022/12/06 00:56:24;;;;;;;23.70;17.52;;;2.40;99.90;2.70;99769.00;;;;338164;28;89178;-87
2022/12/06 00:56:36;;;;;;;23.33;16.70;;;2.40;99.90;2.70;99779.00;;;;341365;28;85188;-87
2022/12/06 00:56:48;;;;;;;23.90;16.48;;;2.40;99.90;2.80;99767.00;;;;339806;28;92432;-87
2022/12/06 00:57:00;;;;;;;24.08;16.63;;;2.40;99.90;2.70;99771.00;;;;339968;28;85802;-87
2022/12/06 00:57:12;;;;;;;22.58;16.92;;;2.40;99.90;2.70;99765.00;;;;339801;28;91758;-87
2022/12/06 00:57:24;;;;;;;23.40;17.05;;;2.40;99.90;2.70;99764.00;;;;338912;28;84713;-87